This demonstration page uses our WeatherBlox Daily Observations layout. Learn more.

38.80484, -77.04692

Hourly Observations for June 1, 2019

Temp ( °F °C ) Dew Point ( °F °C ) Humidity (%) Winds ( mph kmh ) Pressure ( in mb ) Visibility ( mi km ) Precip ( " mm )
12:52 am 00:52 Cloudy 72 22.2 65 18.3 79 79 SSW 7 11 29.8 1009 10 16.09344 0 0
1:52 am 01:52 Cloudy 71 21.7 63 17.2 76 76 WNW 6 9 29.77 1008 10 16.09344 0 0
2:52 am 02:52 Cloudy 71 21.7 63 17.2 76 76 NNW 10 17 29.77 1008 10 16.09344 0 0
3:52 am 03:52 Cloudy 70 21.1 62 16.7 76 76 WNW 6 9 29.8 1009 10 16.09344 0 0
4:52 am 04:52 Cloudy 69 20.6 62 16.7 78 78 NNW 6 9 29.8 1009 10 16.09344 0 0
5:52 am 05:52 Cloudy 70 21.1 61 16.1 73 73 NNW 10 17 29.83 1010 10 16.09344 0 0
6:52 am 06:52 Cloudy 69 20.6 60 15.6 73 73 N 8 13 29.83 1010 10 16.09344 0 0
7:52 am 07:52 Cloudy 71 21.7 59 15 66 66 N 7 11 29.85 1011 10 16.09344 0 0
8:52 am 08:52 Mostly Cloudy 74 23.3 58 14.4 57 57 NE 7 11 29.85 1011 10 16.09344 0 0
9:52 am 09:52 Cloudy 77 25 59 15 54 54 NE 6 9 29.85 1011 10 16.09344 0 0
10:52 am 10:52 Mostly Cloudy 80 26.7 59 15 49 49 E 3 6 29.85 1011 10 16.09344 0 0
12:52 pm 12:52 Mostly Cloudy 82 27.8 56 13.3 41 41 VRB 5 7 29.83 1010 10 16.09344 0 0
1:52 pm 13:52 Mostly Cloudy 85 29.4 52 11.1 32 32 Calm 29.8 1009 10 16.09344 0 0
2:10 pm 14:10 Sunny with Nearby Thunderstorms 84 28.9 52 11.1 33 33 E 5 7 29.8 1009 10 16.09344 0 0
2:26 pm 14:26 Mostly Cloudy 84 28.9 52 11.1 33 33 Calm 29.8 1009 10 16.09344 0 0
2:52 pm 14:52 Mostly Cloudy 86 30 51 10.6 30 30 Calm 29.8 1009 10 16.09344 0 0
3:52 pm 15:52 Mostly Cloudy 86 30 53 11.7 32 32 WNW 3 6 29.8 1009 10 16.09344 0 0
4:52 pm 16:52 Mostly Cloudy 85 29.4 54 12.2 35 35 SSE 5 7 29.77 1008 10 16.09344 0 0
5:52 pm 17:52 Mostly Cloudy 83 28.3 58 14.4 43 43 S 9 15 29.77 1008 10 16.09344 0 0
6:52 pm 18:52 Mostly Cloudy 81 27.2 61 16.1 51 51 S 13 20 29.77 1008 10 16.09344 0 0
7:52 pm 19:52 Cloudy 81 27.2 58 14.4 45 45 SW 9 15 29.8 1009 10 16.09344 0 0
8:52 pm 20:52 Cloudy 77 25 61 16.1 58 58 S 7 11 29.8 1009 10 16.09344 0 0
9:52 pm 21:52 Cloudy 76 24.4 65 18.3 69 69 S 8 13 29.8 1009 10 16.09344 0 0
10:52 pm 22:52 Cloudy 75 23.9 62 16.7 64 64 S 6 9 29.8 1009 10 16.09344 0 0
11:52 pm 23:52 Cloudy 74 23.3 65 18.3 74 74 Calm 29.8 1009 10 16.09344 0 0

Powered by AerisWeather